Hat Yai, Thailand
Current Conditions -  °F | °C
As of 9:00 PM on Thursday 23 Oct 2014 (Local Time) from VTSS Reporting Station
Broken Clouds Broken Clouds  
Wind Chill: 77°   Ceiling: 12000
Heat Index: 78°   Visibility: 5mi
Dew Point: 75°   Wind: 3mph
Humidity: 94%   Direction: 250°WSW
Pressure: 29.88"   Gusts: NA
Location:  7°N, 100.47°E
Report Text: VTSS 231400Z 25003KT 8000 FEW020 SCT028 BKN120 25/24 Q1012 A2990 NOSIG
Loading
Personal Weather Stations






























Interactive Weather Map
Tropical Storm Tracking
New forecast layout! Learn more

10-Day Weather Forecast

Advertisements
Track Severe Weather on mobile